Latest Coastal Weather Observations for King Island Airport

IDT60701

Issued at 8:42 am EST Friday 19 August 2022 (issued every 10 minutes, with the page automatically refreshed every 10 minutes)

About coastal observations | Map of coastal stations | Coastal observations for TAS | Marine services | Other Formats
Station Details ID: 098017 Name: KING ISLAND AIRPORT Lat: -39.88 Lon: 143.89 Height: 35.42 m
Data from the previous 72 hours. | See also: Recent months at King Island Airport
Date/Time
EST
Wind Sea
Height
m
Swell Vis
km
Cloud Weather Temp
°C
Press
MSL
hPa
Rain since
9am
mm
Dir  Spd
kts
Gust
kts
Height
m
Period
s
Dir
19/08:30am W 16 22 - - - - 10 Partly cloudy - 11.1 1011.2 10.6
19/08:00am W 14 20 - - - - 10 Partly cloudy - 10.8 1011.3 10.6
19/07:30am W 13 18 - - - - 10 Partly cloudy - 10.2 1011.0 10.6
19/07:00am W 14 18 - - - - 10 Partly cloudy - 9.9 1010.7 10.6
19/06:30am W 14 20 - - - - 10 Partly cloudy - 10.4 1010.4 10.6
19/06:00am W 16 23 - - - - 10 Mostly clear - 10.3 1010.0 10.6
19/05:30am W 13 20 - - - - 10 Partly cloudy - 9.8 1009.8 10.6
19/05:00am W 14 21 - - - - 10 Partly cloudy - 9.8 1009.7 10.6
19/04:30am W 12 19 - - - - 10 Partly cloudy - 9.9 1009.2 10.6
19/04:00am W 14 21 - - - - 10 Partly cloudy - 9.8 1009.0 10.6
19/03:30am W 15 21 - - - - 10 Partly cloudy - 9.9 1008.8 10.6
19/03:00am W 12 17 - - - - 10 Partly cloudy Recent precip. 9.5 1008.7 10.6
19/02:40am WSW 15 25 - - - - 10 Partly cloudy - 10.2 1008.7 10.4
19/02:30am WSW 14 21 - - - - 10 Partly cloudy - 10.0 1008.5 10.4
19/02:00am W 13 19 - - - - 10 Partly cloudy - 9.5 1008.4 10.4
19/01:30am W 14 21 - - - - 10 Partly cloudy - 9.9 1008.3 10.4
19/01:00am W 13 18 - - - - 10 Partly cloudy - 10.4 1008.0 10.4
19/12:30am W 15 23 - - - - 10 - - 10.0 1007.8 10.4
19/12:00am W 14 19 - - - - 10 Cloudy - 10.4 1007.4 10.4
 
Date/Time
EST
Wind Sea
Height
m
Swell Vis
km
Cloud Weather Temp
°C
Press
MSL
hPa
Rain since
9am
mm
Dir  Spd
kts
Gust
kts
Height
m
Period
s
Dir
18/11:45pm W 15 26 - - - - 10 Partly cloudy - 10.3 1007.3 10.4
18/11:30pm W 15 23 - - - - 10 Partly cloudy - 10.1 1007.3 10.4
18/11:00pm W 13 19 - - - - 10 Partly cloudy - 9.9 1007.2 10.4
18/10:50pm W 16 26 - - - - 6 Partly cloudy - 9.8 1007.2 10.4
18/10:30pm W 14 19 - - - - 10 Partly cloudy - 11.0 1007.0 10.0
18/10:00pm W 16 23 - - - - 10 - - 11.2 1006.9 10.0
18/09:30pm W 15 21 - - - - 10 Partly cloudy - 11.2 1006.8 10.0
18/09:00pm W 15 25 - - - - 10 Cloudy - 11.3 1006.7 10.0
18/08:56pm W 15 25 - - - - 10 Partly cloudy - 11.4 1006.6 10.0
18/08:30pm W 17 23 - - - - 10 Partly cloudy - 11.6 1005.9 10.0
18/08:00pm W 13 21 - - - - 10 Partly cloudy - 11.3 1005.9 10.0
18/07:30pm W 15 20 - - - - 10 Partly cloudy - 11.6 1005.9 10.0
18/07:00pm W 15 21 - - - - 10 - - 11.3 1005.4 10.0
18/06:30pm W 13 17 - - - - 10 Partly cloudy - 10.9 1004.9 10.0
18/06:00pm W 13 17 - - - - 10 Cloudy Showers 11.0 1004.5 10.0
18/05:30pm W 13 19 - - - - 10 Partly cloudy - 11.7 1003.8 10.0
18/05:00pm W 15 21 - - - - 10 Partly cloudy - 11.7 1003.7 10.0
18/04:45pm W 15 25 - - - - 10 Partly cloudy - 11.7 1003.6 10.0
18/04:30pm W 17 25 - - - - 10 Partly cloudy - 12.4 1003.3 10.0
18/04:00pm W 16 25 - - - - 10 Partly cloudy - 12.6 1003.2 10.0
18/03:30pm W 15 23 - - - - 10 Partly cloudy - 12.5 1002.9 10.0
18/03:00pm W 18 25 - - - - 10 Cloudy - 12.7 1002.4 10.0
18/02:30pm W 20 30 - - - - 10 Partly cloudy - 13.1 1002.1 10.0
18/02:00pm W 21 31 - - - - 10 Partly cloudy - 13.2 1001.6 10.0
18/01:57pm W 21 31 - - - - 10 Partly cloudy - 13.6 1001.6 10.0
18/01:51pm W 22 31 - - - - 10 Partly cloudy - 13.4 1001.4 10.0
18/01:37pm WNW 24 34 - - - - 4 Partly cloudy - 13.0 1001.4 10.0
18/01:33pm WNW 25 34 - - - - 5 Partly cloudy - 12.6 1001.4 10.0
18/01:30pm WNW 25 32 - - - - 10 Partly cloudy - 13.5 1001.3 9.6
18/01:16pm WNW 25 35 - - - - 10 Partly cloudy - 13.9 1001.1 9.6
18/01:00pm NW 27 35 - - - - 10 Partly cloudy - 13.6 1000.9 9.6
18/12:47pm WNW 25 35 - - - - 10 Partly cloudy - 13.6 1000.9 9.6
18/12:30pm NW 27 35 - - - - 10 Partly cloudy - 13.6 1000.9 9.6
18/12:11pm NW 28 38 - - - - 10 Partly cloudy - 12.7 1001.0 9.6
18/12:09pm NW 27 34 - - - - 10 Partly cloudy - 12.5 1001.1 9.6
18/12:00pm NW 30 40 - - - - 6 Cloudy Rain 12.0 1001.0 9.6
18/11:39am NW 30 46 - - - - 3 Partly cloudy - 12.6 1000.8 8.6
18/11:35am NW 26 37 - - - - 2 Partly cloudy - 12.8 1000.6 8.2
18/11:30am NW 22 34 - - - - 2 Partly cloudy - 12.5 1001.0 7.8
18/11:03am NW 29 39 - - - - 3 Partly cloudy - 12.7 1001.0 1.2
18/11:01am NNW 31 39 - - - - 5 Partly cloudy - 12.8 1001.0 0.6
18/11:00am NNW 31 39 - - - - 6 Partly cloudy - 12.9 1001.0 0.4
18/10:30am NNW 30 39 - - - - 10 Partly cloudy - 14.4 1000.7 0.0
18/10:00am NW 27 35 - - - - 10 Partly cloudy - 14.3 1000.8 0.0
18/09:37am NW 29 41 - - - - 10 Partly cloudy - 14.5 1001.0 0.0
18/09:30am NNW 28 37 - - - - 10 Partly cloudy - 14.2 1001.2 0.0
18/09:20am NNW 27 37 - - - - 10 Partly cloudy - 14.2 1001.0 0.0
18/09:00am NNW 27 35 - - - - 10 Partly cloudy - 14.3 1001.2 3.6
18/08:35am NNW 27 37 - - - - 10 Partly cloudy - 14.1 1001.0 3.6
18/08:30am NNW 26 34 - - - - 10 Partly cloudy - 14.1 1001.1 3.6
18/08:00am NNW 23 34 - - - - 10 Cloudy - 13.6 1001.2 3.6
18/07:30am N 23 34 - - - - 10 Cloudy - 13.5 1001.0 3.6
18/07:13am N 22 34 - - - - 10 Partly cloudy - 13.2 1001.1 3.6
18/07:00am N 19 26 - - - - 10 Partly cloudy - 12.9 1001.2 3.6
18/06:39am N 19 29 - - - - 10 Cloudy - 12.9 1001.1 3.6
18/06:30am N 20 29 - - - - 10 Cloudy - 13.0 1001.0 3.6
18/06:00am N 19 25 - - - - 10 Mostly cloudy Showers 12.5 1001.2 3.6
18/05:43am N 20 30 - - - - 8 Partly cloudy - 12.4 1001.7 3.6
18/05:30am N 23 30 - - - - 10 Partly cloudy - 12.6 1002.0 3.2
18/05:03am N 20 30 - - - - 10 Partly cloudy - 13.1 1002.7 2.8
18/05:00am N 21 30 - - - - 10 Partly cloudy - 13.1 1002.6 2.8
18/04:30am NNW 22 29 - - - - 10 Partly cloudy - 12.9 1002.5 2.8
18/04:11am NNW 23 33 - - - - 10 Partly cloudy - 12.8 1003.0 2.8
18/04:00am NNW 23 32 - - - - 10 Partly cloudy - 13.0 1003.1 2.8
18/03:54am NNW 25 34 - - - - 10 Partly cloudy - 13.0 1003.5 2.8
18/03:30am NNW 26 34 - - - - 10 Partly cloudy - 13.2 1003.7 2.8
18/03:21am NNW 24 34 - - - - 10 Partly cloudy - 13.3 1003.5 2.8
18/03:00am NNW 22 31 - - - - 10 Cloudy - 13.2 1004.4 2.8
18/02:30am N 25 33 - - - - 10 Cloudy - 13.0 1004.2 2.8
18/02:03am N 24 34 - - - - 10 Partly cloudy - 13.0 1004.4 2.8
18/02:00am N 24 32 - - - - 10 Partly cloudy - 13.0 1004.6 2.8
18/01:30am NNW 22 32 - - - - 10 Partly cloudy - 13.0 1005.4 2.8
18/01:17am NNW 20 30 - - - - 10 Cloudy - 12.8 1005.8 2.8
18/01:00am NNW 22 29 - - - - 10 Partly cloudy - 12.7 1006.2 2.8
18/12:30am NNW 23 28 - - - - 10 Cloudy - 13.0 1006.8 2.6
18/12:00am NNW 20 26 - - - - 10 Cloudy - 13.3 1007.4 2.6
 
Date/Time
EST
Wind Sea
Height
m
Swell Vis
km
Cloud Weather Temp
°C
Press
MSL
hPa
Rain since
9am
mm
Dir  Spd
kts
Gust
kts
Height
m
Period
s
Dir
17/11:30pm NNW 16 22 - - - - 10 Cloudy - 12.9 1007.5 2.6
17/11:00pm N 18 24 - - - - 10 Cloudy - 12.7 1007.6 2.6
17/10:30pm NNW 22 29 - - - - 10 Partly cloudy - 13.1 1008.1 2.6
17/10:00pm NNW 22 29 - - - - 10 Cloudy - 13.0 1008.1 2.6
17/09:54pm N 18 28 - - - - 10 Cloudy - 12.8 1008.4 2.6
17/09:30pm N 15 21 - - - - 10 Cloudy - 12.3 1008.6 2.6
17/09:00pm N 16 20 - - - - 10 Cloudy Showers 12.3 1008.8 2.6
17/08:30pm N 19 25 - - - - 10 Cloudy - 12.4 1009.0 2.6
17/08:00pm N 19 27 - - - - 10 Cloudy - 12.1 1009.4 2.6
17/07:30pm N 17 23 - - - - 10 Partly cloudy - 11.8 1008.8 2.6
17/07:00pm N 16 22 - - - - 10 Partly cloudy - 11.6 1009.2 2.6
17/06:30pm N 17 23 - - - - 10 Partly cloudy - 11.4 1009.6 2.6
17/06:13pm N 17 27 - - - - 10 Partly cloudy - 11.3 1010.2 2.2
17/06:00pm N 18 27 - - - - 10 Mostly cloudy Showers 11.5 1010.1 2.0
17/05:30pm N 17 21 - - - - 10 Partly cloudy - 11.9 1010.2 1.2
17/05:00pm N 15 19 - - - - 10 Partly cloudy - 11.9 1010.6 1.0
17/04:30pm N 11 15 - - - - 10 Partly cloudy - 11.9 1011.1 0.4
17/04:00pm N 13 18 - - - - 10 Partly cloudy - 12.5 1011.3 0.0
17/03:30pm N 15 21 - - - - 10 Cloudy - 13.4 1012.0 0.0
17/03:00pm N 15 20 - - - - 10 Cloudy - 13.4 1012.0 0.0
17/02:30pm N 14 21 - - - - 10 Cloudy - 12.8 1012.6 0.0
17/02:00pm N 17 24 - - - - 10 Cloudy - 13.3 1012.4 0.0
17/01:30pm N 16 22 - - - - 10 Cloudy - 13.5 1012.8 0.0
17/01:00pm N 17 23 - - - - 10 Cloudy - 13.2 1013.3 0.0
17/12:30pm N 14 18 - - - - 10 Cloudy - 13.2 1014.0 0.0
17/12:00pm N 16 21 - - - - 10 Mostly cloudy - 12.8 1014.6 0.0
17/11:30am N 17 23 - - - - 10 Partly cloudy - 12.7 1015.5 0.0
17/11:00am N 15 20 - - - - 10 Partly cloudy - 12.7 1015.7 0.0
17/10:30am N 13 17 - - - - 10 Partly cloudy - 11.9 1016.4 0.0
17/10:00am N 13 17 - - - - 10 Partly cloudy - 12.0 1016.6 0.0
17/09:30am N 15 19 - - - - 10 Partly cloudy - 11.9 1017.1 0.0
17/09:00am N 14 19 - - - - 10 Cloudy - 11.5 1017.2 0.2
17/08:30am N 10 15 - - - - 10 Cloudy - 11.8 1017.0 0.2
17/08:00am NNW 9 12 - - - - 10 Partly cloudy - 11.0 1016.9 0.2
17/07:30am N 7 10 - - - - 10 Partly cloudy - 10.5 1016.5 0.2
17/07:00am NW 10 12 - - - - 10 Partly cloudy - 10.5 1016.9 0.2
17/06:30am NNW 7 9 - - - - 10 Cloudy - 10.5 1016.8 0.2
17/06:00am NNW 8 11 - - - - 10 Mostly cloudy - 10.3 1017.1 0.2
17/05:30am NW 7 10 - - - - 10 Cloudy - 10.5 1017.3 0.2
17/05:00am NW 9 11 - - - - 10 Cloudy - 10.3 1017.4 0.2
17/04:30am WNW 9 13 - - - - 10 Cloudy - 10.6 1017.3 0.2
17/04:00am NW 8 10 - - - - 10 Cloudy - 10.2 1017.3 0.2
17/03:30am WNW 8 11 - - - - 10 Cloudy - 9.8 1017.3 0.2
17/03:00am WNW 6 7 - - - - 10 Cloudy - 10.1 1017.5 0.2
17/02:30am WNW 5 7 - - - - 10 Cloudy - 10.0 1017.0 0.2
17/02:00am W 6 8 - - - - 10 Cloudy - 10.0 1017.3 0.2
17/01:30am WNW 7 9 - - - - 10 Cloudy - 10.0 1017.4 0.2
17/01:00am W 6 8 - - - - 10 Partly cloudy - 10.1 1017.7 0.2
17/12:30am WSW 5 7 - - - - 10 Cloudy - 10.1 1017.4 0.2
17/12:00am WSW 4 5 - - - - 10 Cloudy - 10.1 1017.7 0.2
 
Date/Time
EST
Wind Sea
Height
m
Swell Vis
km
Cloud Weather Temp
°C
Press
MSL
hPa
Rain since
9am
mm
Dir  Spd
kts
Gust
kts
Height
m
Period
s
Dir
16/11:30pm WSW 4 7 - - - - 10 Cloudy - 10.0 1017.8 0.2
16/11:00pm SW 5 7 - - - - 10 Cloudy - 10.2 1018.1 0.2
16/10:30pm WSW 8 11 - - - - 10 Cloudy - 10.5 1018.1 0.2
16/10:00pm SW 7 11 - - - - 10 Cloudy - 10.6 1018.3 0.2
16/09:30pm WSW 8 11 - - - - 10 Cloudy - 10.6 1018.0 0.2
16/09:00pm SW 9 14 - - - - 10 Cloudy - 10.6 1017.7 0.2
16/08:30pm SW 10 12 - - - - 10 Cloudy - 10.6 1017.6 0.2
16/08:00pm SSW 13 17 - - - - 10 Cloudy - 10.6 1017.2 0.2
16/07:41pm SW 11 15 - - - - 10 Partly cloudy - 10.5 1017.3 0.2
16/07:30pm SW 12 15 - - - - 10 Partly cloudy - 10.4 1017.3 0.2
16/07:11pm SW 12 16 - - - - 10 Partly cloudy - 10.4 1017.4 0.2
16/07:00pm SW 13 17 - - - - 10 Partly cloudy - 10.3 1017.2 0.2
16/06:49pm SW 13 16 - - - - 10 Partly cloudy - 10.4 1017.2 0.2
16/06:30pm SW 12 16 - - - - 10 Cloudy - 10.7 1017.2 0.2
16/06:00pm SW 15 20 - - - - 10 Mostly cloudy - 10.6 1016.5 0.2
16/05:30pm SW 13 18 - - - - 10 Cloudy - 11.1 1016.2 0.2
16/05:00pm SW 13 18 - - - - 10 Partly cloudy - 11.5 1015.6 0.2
16/04:30pm SW 12 17 - - - - 10 Partly cloudy - 12.1 1014.6 0.2
16/04:00pm SSW 14 19 - - - - 10 Partly cloudy - 11.6 1014.3 0.2
16/03:30pm SW 14 21 - - - - 10 Partly cloudy - 12.0 1014.2 0.2
16/03:00pm SW 15 20 - - - - 10 Cloudy Showers 11.7 1014.2 0.2
16/02:30pm SW 17 21 - - - - 10 Partly cloudy - 12.3 1014.0 0.2
16/02:00pm SW 15 23 - - - - 10 Partly cloudy - 12.7 1013.8 0.2
16/01:30pm SW 18 22 - - - - 10 Partly cloudy - 12.9 1013.8 0.2
16/01:00pm SW 16 23 - - - - 10 Partly cloudy - 12.1 1013.4 0.2
16/12:57pm SW 15 21 - - - - 10 Partly cloudy - 11.8 1013.5 0.2
16/12:41pm SW 17 26 - - - - 5 Partly cloudy - 11.4 1013.6 0.2
16/12:30pm SW 17 22 - - - - 10 Partly cloudy - 12.5 1013.4 0.0
16/12:00pm SW 17 23 - - - - 10 Cloudy - 12.8 1013.4 0.0
16/11:30am SW 20 27 - - - - 10 Partly cloudy - 11.8 1013.5 0.0
16/11:24am SW 20 27 - - - - 10 Partly cloudy - 11.6 1013.5 0.0
16/11:01am SW 18 24 - - - - 10 Partly cloudy - 12.0 1013.2 0.0
16/11:00am SW 18 24 - - - - 10 Partly cloudy - 12.0 1013.2 0.0
16/10:38am SW 20 26 - - - - 10 Partly cloudy - 11.7 1012.8 0.0
16/10:32am SW 19 26 - - - - 10 Partly cloudy - 11.7 1012.7 0.0
16/10:30am SW 19 26 - - - - 8 Partly cloudy - 11.5 1012.7 0.0
16/10:19am SW 19 24 - - - - 5 Partly cloudy - 11.3 1012.5 0.0
16/10:16am SW 19 24 - - - - 10 Partly cloudy - 11.2 1012.5 0.0
16/10:11am SW 19 24 - - - - 10 Partly cloudy - 11.6 1012.4 0.0
16/10:00am SW 19 26 - - - - 10 Partly cloudy - 11.4 1012.3 0.0
16/09:30am SSW 15 22 - - - - 10 Partly cloudy - 11.7 1011.8 0.0
16/09:24am SW 17 25 - - - - 8 Partly cloudy - 11.5 1011.9 0.0
16/09:00am SW 17 24 - - - - 10 Cloudy Rain 11.4 1011.6 8.0

Other formats

Comma delimited format used in spreadsheet applications
http://www.bom.gov.au/fwo/IDT60701/IDT60701.94850.axf

JavaScript Object Notation format (JSON) in row-major order
http://www.bom.gov.au/fwo/IDT60701/IDT60701.94850.json

Data quality

Most of these data are generated automatically and are frequently updated. Quality checks on data are not normally performed. It is possible for incorrect values to appear. Refer to information at About Latest Weather Observations and please check the disclaimer before using these data.